PWSweather.com
Personal Weather Stations
Station Observations
FAUSKE
Nordland, Norway, FauskeNO 8200

Nordland, NorwayFauskeNO 8200

Lat: 67.2607586, Lon: 15.4114204

Elevation: 40

Station Type: Davis Vantage PRO2

http://www.bjornli.net/weather.html

Latest ConditionsUpdated 6:40:06 AM GMT+01:01 Thursday, Dec 8, 2016
Currently Today's Max Today's Min Today's Average
Temperature 34.3°F1.3°C 35.2°F1.8°C 34.2°F1.2°C 34.7°F1.5°C
Dew Point 33.8°F1.0°C 34.7°F1.5°C 33.7°F0.9°C 34.2°F1.2°C
Winds Calm Calm 1.0 mph SW1.6 kmh SW - 0.0 mph 0.0 kmh
Wind Gusts -- 1.0 mph1.6 kmh - -
Humidity 98% 98% 98% 98%
Pressure 29.30 in992.2 mb 29.39 in995.3 mb 29.30 in992.2 mb -
Hour Temp Dew Point Humidity Winds Wind Gusts Pressure Precip Precip Rate Daily Precip Total
06:40 AM 34.3°F1.3°C 33.8°F1.0°C 98% Calm Calm -- 29.30 in992.2 mb 0.00 in0.0 mm 0.00 in0.0 mm 0.02 in0.5 mm
06:30 AM 34.3°F1.3°C 33.8°F1.0°C 98% Calm Calm -- 29.30 in992.2 mb 0.00 in0.0 mm 0.00 in0.0 mm 0.02 in0.5 mm
06:10 AM 34.5°F1.4°C 34.0°F1.1°C 98% Calm Calm -- 29.30 in992.2 mb 0.00 in0.0 mm 0.00 in0.0 mm 0.02 in0.5 mm
06:00 AM 34.2°F1.2°C 33.7°F0.9°C 98% Calm Calm -- 29.30 in992.2 mb 0.00 in0.0 mm 0.00 in0.0 mm 0.02 in0.5 mm
05:40 AM 34.6°F1.4°C 34.1°F1.2°C 98% Calm Calm -- 29.30 in992.2 mb 0.00 in0.0 mm 0.00 in0.0 mm 0.02 in0.5 mm
05:30 AM 34.6°F1.4°C 34.1°F1.2°C 98% Calm Calm -- 29.30 in992.2 mb 0.00 in0.0 mm 0.00 in0.0 mm 0.02 in0.5 mm
05:10 AM 34.6°F1.4°C 34.1°F1.2°C 98% Calm Calm -- 29.30 in992.2 mb 0.00 in0.0 mm 0.00 in0.0 mm 0.02 in0.5 mm
05:00 AM 34.4°F1.3°C 33.9°F1.1°C 98% Calm Calm -- 29.31 in992.6 mb 0.00 in0.0 mm 0.00 in0.0 mm 0.02 in0.5 mm
04:40 AM 34.3°F1.3°C 33.8°F1.0°C 98% Calm Calm -- 29.31 in992.6 mb 0.00 in0.0 mm 0.00 in0.0 mm 0.02 in0.5 mm
04:30 AM 34.3°F1.3°C 33.8°F1.0°C 98% Calm Calm -- 29.31 in992.6 mb 0.00 in0.0 mm 0.00 in0.0 mm 0.02 in0.5 mm
04:10 AM 34.6°F1.4°C 34.1°F1.2°C 98% 1.0 mph SW1.6 kmh SW 1.0 mph1.6 kmh 29.31 in992.6 mb 0.00 in0.0 mm 0.00 in0.0 mm 0.02 in0.5 mm
04:00 AM 34.6°F1.4°C 34.1°F1.2°C 98% Calm Calm -- 29.32 in992.9 mb 0.00 in0.0 mm 0.00 in0.0 mm 0.02 in0.5 mm
03:40 AM 34.6°F1.4°C 34.1°F1.2°C 98% Calm Calm -- 29.33 in993.2 mb 0.00 in0.0 mm 0.00 in0.0 mm 0.02 in0.5 mm
03:30 AM 34.6°F1.4°C 34.1°F1.2°C 98% Calm Calm -- 29.33 in993.2 mb 0.00 in0.0 mm 0.00 in0.0 mm 0.02 in0.5 mm
03:10 AM 34.8°F1.6°C 34.3°F1.3°C 98% Calm Calm -- 29.34 in993.6 mb 0.02 in0.5 mm 0.00 in0.0 mm 0.02 in0.5 mm
03:00 AM 34.8°F1.6°C 34.3°F1.3°C 98% Calm Calm -- 29.34 in993.6 mb 0.02 in0.5 mm 0.00 in0.0 mm 0.02 in0.5 mm
02:40 AM 34.9°F1.6°C 34.4°F1.3°C 98% Calm Calm -- 29.35 in993.9 mb 0.02 in0.5 mm 0.00 in0.0 mm 0.02 in0.5 mm
02:30 AM 34.9°F1.6°C 34.4°F1.3°C 98% Calm Calm -- 29.35 in993.9 mb 0.02 in0.5 mm 0.03 in0.8 mm 0.02 in0.5 mm
02:10 AM 34.7°F1.5°C 34.2°F1.2°C 98% Calm Calm -- 29.35 in993.9 mb 0.01 in0.3 mm 0.06 in1.5 mm 0.01 in0.3 mm
02:00 AM 34.6°F1.4°C 34.1°F1.2°C 98% Calm Calm -- 29.36 in994.2 mb 0.00 in0.0 mm 0.00 in0.0 mm 0.00 in0.0 mm
01:40 AM 35.0°F1.7°C 34.5°F1.4°C 98% Calm Calm -- 29.36 in994.2 mb 0.00 in0.0 mm 0.00 in0.0 mm 0.00 in0.0 mm
01:30 AM 35.1°F1.7°C 34.6°F1.4°C 98% Calm Calm -- 29.36 in994.2 mb 0.00 in0.0 mm 0.00 in0.0 mm 0.00 in0.0 mm
01:10 AM 34.9°F1.6°C 34.4°F1.3°C 98% Calm Calm -- 29.37 in994.6 mb 0.00 in0.0 mm 0.00 in0.0 mm 0.00 in0.0 mm
01:00 AM 34.9°F1.6°C 34.4°F1.3°C 98% Calm Calm -- 29.37 in994.6 mb 0.00 in0.0 mm 0.00 in0.0 mm 0.00 in0.0 mm
12:40 AM 34.8°F1.6°C 34.3°F1.3°C 98% Calm Calm -- 29.37 in994.6 mb 0.00 in0.0 mm 0.00 in0.0 mm 0.00 in0.0 mm
12:30 AM 35.0°F1.7°C 34.5°F1.4°C 98% Calm Calm -- 29.38 in994.9 mb 0.00 in0.0 mm 0.00 in0.0 mm 0.00 in0.0 mm
12:10 AM 35.2°F1.8°C 34.7°F1.5°C 98% Calm Calm -- 29.38 in994.9 mb 0.00 in0.0 mm 0.00 in0.0 mm 0.00 in0.0 mm
12:00 AM 35.1°F1.7°C 34.6°F1.4°C 98% Calm Calm -- 29.39 in995.3 mb 0.00 in0.0 mm 0.00 in0.0 mm 0.00 in0.0 mm